sensor_id;sensor_type;location;lat;lon;timestamp;pressure;altitude;pressure_sealevel;temperature;humidity
1926;BME280;964;42.606;23.588;2022-08-21T00:02:28;93966.69;;;36.42;35.90
1926;BME280;964;42.606;23.588;2022-08-21T00:04:54;93967.72;;;36.91;34.91
1926;BME280;964;42.606;23.588;2022-08-21T00:07:22;93954.16;;;36.67;35.57
1926;BME280;964;42.606;23.588;2022-08-21T00:09:49;93950.41;;;36.91;35.81
1926;BME280;964;42.606;23.588;2022-08-21T00:12:16;93953.69;;;37.02;35.02
1926;BME280;964;42.606;23.588;2022-08-21T00:14:43;93947.81;;;36.72;34.73
1926;BME280;964;42.606;23.588;2022-08-21T00:17:09;93958.38;;;36.81;35.14
1926;BME280;964;42.606;23.588;2022-08-21T00:19:36;93959.78;;;36.48;35.23
1926;BME280;964;42.606;23.588;2022-08-21T00:22:03;93961.19;;;36.28;36.30
1926;BME280;964;42.606;23.588;2022-08-21T00:24:31;93947.41;;;36.28;35.97
1926;BME280;964;42.606;23.588;2022-08-21T00:26:58;93946.63;;;36.67;35.67
1926;BME280;964;42.606;23.588;2022-08-21T00:29:25;93955.44;;;36.26;35.55
1926;BME280;964;42.606;23.588;2022-08-21T00:31:53;93936.63;;;36.77;35.43
1926;BME280;964;42.606;23.588;2022-08-21T00:34:19;93941.63;;;36.66;35.80
1926;BME280;964;42.606;23.588;2022-08-21T00:36:46;93952.69;;;36.66;34.67
1926;BME280;964;42.606;23.588;2022-08-21T00:39:13;93953.31;;;36.06;36.16
1926;BME280;964;42.606;23.588;2022-08-21T00:41:42;93951.44;;;36.27;35.47
1926;BME280;964;42.606;23.588;2022-08-21T00:44:12;93959.06;;;36.61;35.29
1926;BME280;964;42.606;23.588;2022-08-21T00:46:39;93968.44;;;36.58;35.24
1926;BME280;964;42.606;23.588;2022-08-21T00:49:08;93962.88;;;37.18;33.96
1926;BME280;964;42.606;23.588;2022-08-21T00:51:41;93948.31;;;37.17;33.99
1926;BME280;964;42.606;23.588;2022-08-21T00:54:10;93955.94;;;37.24;34.58
1926;BME280;964;42.606;23.588;2022-08-21T00:56:38;93956.25;;;36.87;34.69
1926;BME280;964;42.606;23.588;2022-08-21T00:59:07;93965.56;;;37.65;33.96
1926;BME280;964;42.606;23.588;2022-08-21T01:01:34;93967.56;;;37.44;34.50
1926;BME280;964;42.606;23.588;2022-08-21T01:04:01;93958.06;;;36.84;35.56
1926;BME280;964;42.606;23.588;2022-08-21T01:06:28;93954.78;;;36.86;34.88
1926;BME280;964;42.606;23.588;2022-08-21T01:08:55;93953.81;;;37.30;34.41
1926;BME280;964;42.606;23.588;2022-08-21T01:11:21;93940.31;;;37.89;33.34
1926;BME280;964;42.606;23.588;2022-08-21T01:13:48;93951.56;;;37.63;34.00
1926;BME280;964;42.606;23.588;2022-08-21T01:16:19;93954.72;;;37.12;34.18
1926;BME280;964;42.606;23.588;2022-08-21T01:18:48;93946.63;;;37.14;34.45
1926;BME280;964;42.606;23.588;2022-08-21T01:21:20;93935.44;;;36.73;35.44
1926;BME280;964;42.606;23.588;2022-08-21T01:23:50;93952.16;;;37.14;34.33
1926;BME280;964;42.606;23.588;2022-08-21T01:26:20;93947.09;;;37.60;33.85
1926;BME280;964;42.606;23.588;2022-08-21T01:28:54;93954.31;;;37.63;33.91
1926;BME280;964;42.606;23.588;2022-08-21T01:31:24;93940.28;;;37.06;34.51
1926;BME280;964;42.606;23.588;2022-08-21T01:33:51;93943.66;;;37.67;33.82
1926;BME280;964;42.606;23.588;2022-08-21T01:36:20;93943.72;;;37.54;34.07
1926;BME280;964;42.606;23.588;2022-08-21T01:38:47;93945.94;;;36.88;34.95
1926;BME280;964;42.606;23.588;2022-08-21T01:41:15;93944.84;;;36.57;35.32
1926;BME280;964;42.606;23.588;2022-08-21T01:43:43;93941.81;;;36.81;34.45
1926;BME280;964;42.606;23.588;2022-08-21T01:46:11;93948.59;;;36.93;34.86
1926;BME280;964;42.606;23.588;2022-08-21T01:48:39;93947.16;;;36.53;35.28
1926;BME280;964;42.606;23.588;2022-08-21T01:51:06;93942.03;;;36.83;34.92
1926;BME280;964;42.606;23.588;2022-08-21T01:53:35;93960.25;;;35.49;36.81
1926;BME280;964;42.606;23.588;2022-08-21T01:56:04;93962.06;;;35.47;36.93
1926;BME280;964;42.606;23.588;2022-08-21T01:58:31;93956.16;;;35.56;36.08
1926;BME280;964;42.606;23.588;2022-08-21T02:00:58;93961.75;;;35.82;36.16
1926;BME280;964;42.606;23.588;2022-08-21T02:03:26;93955.00;;;36.75;34.42
1926;BME280;964;42.606;23.588;2022-08-21T02:05:53;93944.91;;;37.45;33.65
1926;BME280;964;42.606;23.588;2022-08-21T02:08:20;93951.88;;;37.59;33.11
1926;BME280;964;42.606;23.588;2022-08-21T02:10:50;93953.94;;;36.52;34.20
1926;BME280;964;42.606;23.588;2022-08-21T02:13:18;93963.53;;;36.24;34.74
1926;BME280;964;42.606;23.588;2022-08-21T02:15:45;93955.63;;;36.55;34.31
1926;BME280;964;42.606;23.588;2022-08-21T02:18:12;93948.88;;;36.56;34.66
1926;BME280;964;42.606;23.588;2022-08-21T02:20:42;93959.63;;;35.43;36.18
1926;BME280;964;42.606;23.588;2022-08-21T02:23:10;93963.38;;;35.08;37.51
1926;BME280;964;42.606;23.588;2022-08-21T02:25:37;93967.72;;;35.99;35.58
1926;BME280;964;42.606;23.588;2022-08-21T02:28:09;93963.53;;;37.11;34.56
1926;BME280;964;42.606;23.588;2022-08-21T02:30:40;93964.44;;;37.26;34.42
1926;BME280;964;42.606;23.588;2022-08-21T02:33:08;93968.69;;;36.80;34.31
1926;BME280;964;42.606;23.588;2022-08-21T02:35:36;93970.75;;;36.67;34.91
1926;BME280;964;42.606;23.588;2022-08-21T02:38:05;93966.41;;;37.05;34.45
1926;BME280;964;42.606;23.588;2022-08-21T02:40:35;93969.19;;;36.92;34.58
1926;BME280;964;42.606;23.588;2022-08-21T02:43:04;93969.47;;;36.28;35.76
1926;BME280;964;42.606;23.588;2022-08-21T02:45:34;93966.47;;;36.79;34.70
1926;BME280;964;42.606;23.588;2022-08-21T02:48:04;93976.03;;;36.52;35.02
1926;BME280;964;42.606;23.588;2022-08-21T02:50:32;93974.97;;;36.42;35.83
1926;BME280;964;42.606;23.588;2022-08-21T02:52:59;93966.34;;;36.84;34.79
1926;BME280;964;42.606;23.588;2022-08-21T02:55:28;93964.38;;;37.19;34.37
1926;BME280;964;42.606;23.588;2022-08-21T02:57:57;93970.22;;;37.70;34.04
1926;BME280;964;42.606;23.588;2022-08-21T03:00:26;93971.59;;;37.43;34.24
1926;BME280;964;42.606;23.588;2022-08-21T03:02:56;93982.59;;;37.01;34.36
1926;BME280;964;42.606;23.588;2022-08-21T03:05:24;93979.06;;;37.34;34.20
1926;BME280;964;42.606;23.588;2022-08-21T03:07:52;93978.69;;;36.70;34.93
1926;BME280;964;42.606;23.588;2022-08-21T03:10:20;93978.91;;;35.75;36.58
1926;BME280;964;42.606;23.588;2022-08-21T03:12:47;93973.72;;;36.43;35.07
1926;BME280;964;42.606;23.588;2022-08-21T03:15:17;93972.66;;;36.72;35.60
1926;BME280;964;42.606;23.588;2022-08-21T03:17:44;93962.63;;;37.63;34.10
1926;BME280;964;42.606;23.588;2022-08-21T03:20:14;93963.53;;;37.86;33.41
1926;BME280;964;42.606;23.588;2022-08-21T03:22:41;93956.75;;;38.15;32.85
1926;BME280;964;42.606;23.588;2022-08-21T03:25:09;93973.03;;;37.36;33.69
1926;BME280;964;42.606;23.588;2022-08-21T03:27:37;93970.88;;;36.61;35.44
1926;BME280;964;42.606;23.588;2022-08-21T03:30:05;93975.47;;;36.93;34.83
1926;BME280;964;42.606;23.588;2022-08-21T03:32:33;93970.31;;;36.63;34.83
1926;BME280;964;42.606;23.588;2022-08-21T03:35:00;93967.25;;;37.13;34.19
1926;BME280;964;42.606;23.588;2022-08-21T03:37:28;93970.41;;;37.30;34.23
1926;BME280;964;42.606;23.588;2022-08-21T03:39:55;93964.38;;;37.73;33.28
1926;BME280;964;42.606;23.588;2022-08-21T03:42:22;93974.47;;;37.71;33.46
1926;BME280;964;42.606;23.588;2022-08-21T03:44:49;93979.38;;;37.10;34.36
1926;BME280;964;42.606;23.588;2022-08-21T03:47:16;93969.00;;;37.03;34.24
1926;BME280;964;42.606;23.588;2022-08-21T03:49:43;93977.63;;;37.20;34.29
1926;BME280;964;42.606;23.588;2022-08-21T03:52:09;93982.25;;;37.39;33.48
1926;BME280;964;42.606;23.588;2022-08-21T03:54:38;93970.97;;;37.50;33.50
1926;BME280;964;42.606;23.588;2022-08-21T03:57:05;93979.53;;;37.59;33.36
1926;BME280;964;42.606;23.588;2022-08-21T03:59:32;93981.13;;;36.48;34.85
1926;BME280;964;42.606;23.588;2022-08-21T04:02:01;93983.47;;;36.83;34.42
1926;BME280;964;42.606;23.588;2022-08-21T04:04:29;93975.25;;;37.38;33.86
1926;BME280;964;42.606;23.588;2022-08-21T04:06:56;93972.75;;;37.26;33.63
1926;BME280;964;42.606;23.588;2022-08-21T04:09:24;93967.13;;;37.73;33.32
1926;BME280;964;42.606;23.588;2022-08-21T04:11:53;93969.44;;;37.28;33.75
1926;BME280;964;42.606;23.588;2022-08-21T04:14:20;93964.88;;;37.72;33.08
1926;BME280;964;42.606;23.588;2022-08-21T04:16:47;93960.78;;;37.65;33.03
1926;BME280;964;42.606;23.588;2022-08-21T04:19:14;93961.13;;;37.28;33.68
1926;BME280;964;42.606;23.588;2022-08-21T04:21:41;93957.69;;;37.48;33.46
1926;BME280;964;42.606;23.588;2022-08-21T04:24:09;93960.44;;;37.69;33.06
1926;BME280;964;42.606;23.588;2022-08-21T04:26:37;93971.22;;;38.01;32.80
1926;BME280;964;42.606;23.588;2022-08-21T04:29:05;93972.66;;;38.43;32.28
1926;BME280;964;42.606;23.588;2022-08-21T04:31:33;93968.84;;;38.54;32.27
1926;BME280;964;42.606;23.588;2022-08-21T04:34:00;93968.53;;;38.65;31.91
1926;BME280;964;42.606;23.588;2022-08-21T04:36:26;93968.19;;;37.91;32.91
1926;BME280;964;42.606;23.588;2022-08-21T04:38:53;93970.13;;;38.04;32.99
1926;BME280;964;42.606;23.588;2022-08-21T04:41:20;93958.25;;;38.45;32.40
1926;BME280;964;42.606;23.588;2022-08-21T04:43:47;93957.56;;;38.23;32.80
1926;BME280;964;42.606;23.588;2022-08-21T04:46:15;93963.88;;;38.32;32.74
1926;BME280;964;42.606;23.588;2022-08-21T04:48:41;93964.97;;;38.57;32.34
1926;BME280;964;42.606;23.588;2022-08-21T04:51:12;93962.94;;;37.80;33.72
1926;BME280;964;42.606;23.588;2022-08-21T04:53:41;93960.34;;;37.82;33.80
1926;BME280;964;42.606;23.588;2022-08-21T04:56:15;93965.41;;;37.91;33.33
1926;BME280;964;42.606;23.588;2022-08-21T04:58:44;93961.88;;;38.11;32.98
1926;BME280;964;42.606;23.588;2022-08-21T05:01:17;93971.09;;;38.06;33.32
1926;BME280;964;42.606;23.588;2022-08-21T05:03:45;93959.09;;;38.32;33.42
1926;BME280;964;42.606;23.588;2022-08-21T05:06:14;93951.72;;;38.35;33.03
1926;BME280;964;42.606;23.588;2022-08-21T05:08:45;93948.69;;;38.89;32.37
1926;BME280;964;42.606;23.588;2022-08-21T05:11:13;93956.34;;;38.68;33.01
1926;BME280;964;42.606;23.588;2022-08-21T05:13:39;93951.56;;;38.68;33.01
1926;BME280;964;42.606;23.588;2022-08-21T05:16:07;93962.50;;;38.46;33.51
1926;BME280;964;42.606;23.588;2022-08-21T05:18:35;93950.47;;;38.79;32.77
1926;BME280;964;42.606;23.588;2022-08-21T05:21:02;93956.88;;;38.66;32.79
1926;BME280;964;42.606;23.588;2022-08-21T05:23:29;93959.91;;;38.48;32.97
1926;BME280;964;42.606;23.588;2022-08-21T05:25:56;93950.31;;;39.36;32.17
1926;BME280;964;42.606;23.588;2022-08-21T05:28:23;93955.94;;;39.89;31.80
1926;BME280;964;42.606;23.588;2022-08-21T05:30:51;93942.22;;;39.98;31.53
1926;BME280;964;42.606;23.588;2022-08-21T05:33:18;93939.66;;;39.85;31.36
1926;BME280;964;42.606;23.588;2022-08-21T05:35:50;93935.19;;;40.28;31.43
1926;BME280;964;42.606;23.588;2022-08-21T05:38:17;93943.88;;;39.63;31.68
1926;BME280;964;42.606;23.588;2022-08-21T05:40:44;93939.97;;;40.35;30.73
1926;BME280;964;42.606;23.588;2022-08-21T05:43:11;93939.63;;;40.31;30.00
1926;BME280;964;42.606;23.588;2022-08-21T05:45:38;93936.97;;;40.48;30.61
1926;BME280;964;42.606;23.588;2022-08-21T05:48:06;93941.06;;;40.47;30.00
1926;BME280;964;42.606;23.588;2022-08-21T05:50:33;93946.53;;;39.10;31.56
1926;BME280;964;42.606;23.588;2022-08-21T06:05:11;93940.38;;;37.97;32.61
1926;BME280;964;42.606;23.588;2022-08-21T06:07:37;93941.56;;;37.60;33.64
1926;BME280;964;42.606;23.588;2022-08-21T06:10:05;93937.09;;;37.98;33.10
1926;BME280;964;42.606;23.588;2022-08-21T06:12:32;93934.56;;;37.59;33.14
1926;BME280;964;42.606;23.588;2022-08-21T06:14:58;93936.25;;;37.90;32.78
1926;BME280;964;42.606;23.588;2022-08-21T06:17:25;93932.72;;;36.60;34.42
1926;BME280;964;42.606;23.588;2022-08-21T06:19:52;93928.34;;;37.66;33.10
1926;BME280;964;42.606;23.588;2022-08-21T06:22:20;93938.78;;;37.05;33.72
1926;BME280;964;42.606;23.588;2022-08-21T06:24:47;93925.25;;;38.90;32.49
1926;BME280;964;42.606;23.588;2022-08-21T06:27:14;93923.19;;;39.80;31.33
1926;BME280;964;42.606;23.588;2022-08-21T06:29:43;93923.66;;;40.46;30.67
1926;BME280;964;42.606;23.588;2022-08-21T06:32:12;93916.47;;;40.98;30.80
1926;BME280;964;42.606;23.588;2022-08-21T06:34:40;93916.03;;;41.09;29.91
1926;BME280;964;42.606;23.588;2022-08-21T06:37:07;93916.19;;;41.11;28.52
1926;BME280;964;42.606;23.588;2022-08-21T06:39:35;93935.34;;;41.00;28.98
1926;BME280;964;42.606;23.588;2022-08-21T06:42:02;93929.31;;;39.86;30.39
1926;BME280;964;42.606;23.588;2022-08-21T06:44:29;93937.78;;;40.26;30.16
1926;BME280;964;42.606;23.588;2022-08-21T06:46:57;93948.44;;;40.52;30.28
1926;BME280;964;42.606;23.588;2022-08-21T06:49:23;93951.75;;;39.21;30.54
1926;BME280;964;42.606;23.588;2022-08-21T06:51:50;93958.09;;;38.86;31.05
1926;BME280;964;42.606;23.588;2022-08-21T06:54:16;93948.94;;;38.63;31.48
1926;BME280;964;42.606;23.588;2022-08-21T06:56:45;93951.28;;;38.95;30.74
1926;BME280;964;42.606;23.588;2022-08-21T06:59:11;93938.44;;;39.12;30.63
1926;BME280;964;42.606;23.588;2022-08-21T07:01:38;93944.31;;;39.01;30.47
1926;BME280;964;42.606;23.588;2022-08-21T07:04:05;93934.97;;;39.50;29.69
1926;BME280;964;42.606;23.588;2022-08-21T07:06:32;93942.44;;;39.85;29.16
1926;BME280;964;42.606;23.588;2022-08-21T07:08:59;93940.53;;;39.65;29.67
1926;BME280;964;42.606;23.588;2022-08-21T07:11:27;93933.72;;;39.66;29.81
1926;BME280;964;42.606;23.588;2022-08-21T07:13:55;93949.88;;;39.09;31.59
1926;BME280;964;42.606;23.588;2022-08-21T07:16:22;93944.31;;;39.01;30.55
1926;BME280;964;42.606;23.588;2022-08-21T07:18:49;93943.00;;;40.14;30.14
1926;BME280;964;42.606;23.588;2022-08-21T07:21:16;93929.78;;;40.30;29.08
1926;BME280;964;42.606;23.588;2022-08-21T07:23:45;93920.72;;;42.65;27.02
1926;BME280;964;42.606;23.588;2022-08-21T07:26:14;93921.75;;;41.44;28.92
1926;BME280;964;42.606;23.588;2022-08-21T07:28:41;93926.63;;;40.33;30.06
1926;BME280;964;42.606;23.588;2022-08-21T07:31:10;93925.56;;;39.53;30.82
1926;BME280;964;42.606;23.588;2022-08-21T07:33:39;93930.34;;;39.30;31.57
1926;BME280;964;42.606;23.588;2022-08-21T07:36:06;93917.47;;;39.70;30.31
1926;BME280;964;42.606;23.588;2022-08-21T07:38:34;93930.97;;;38.92;31.76
1926;BME280;964;42.606;23.588;2022-08-21T07:41:12;93925.94;;;40.10;30.27
1926;BME280;964;42.606;23.588;2022-08-21T07:43:40;93927.38;;;38.76;31.07
1926;BME280;964;42.606;23.588;2022-08-21T07:46:07;93927.03;;;38.80;31.41
1926;BME280;964;42.606;23.588;2022-08-21T07:48:35;93926.91;;;38.93;30.65
1926;BME280;964;42.606;23.588;2022-08-21T07:51:05;93934.69;;;37.74;32.33
1926;BME280;964;42.606;23.588;2022-08-21T07:53:32;93932.50;;;37.80;33.04
1926;BME280;964;42.606;23.588;2022-08-21T07:55:58;93927.44;;;39.73;30.14
1926;BME280;964;42.606;23.588;2022-08-21T07:58:25;93921.69;;;40.16;30.27
1926;BME280;964;42.606;23.588;2022-08-21T08:00:52;93921.13;;;40.26;30.17
1926;BME280;964;42.606;23.588;2022-08-21T08:03:19;93913.94;;;39.85;30.46
1926;BME280;964;42.606;23.588;2022-08-21T08:05:47;93921.44;;;39.16;30.87
1926;BME280;964;42.606;23.588;2022-08-21T08:08:14;93918.91;;;39.56;30.28
1926;BME280;964;42.606;23.588;2022-08-21T08:10:41;93934.50;;;38.57;31.51
1926;BME280;964;42.606;23.588;2022-08-21T08:13:08;93917.41;;;39.40;30.89
1926;BME280;964;42.606;23.588;2022-08-21T08:15:35;93920.22;;;39.85;30.72
1926;BME280;964;42.606;23.588;2022-08-21T08:18:03;93914.28;;;39.66;30.29
1926;BME280;964;42.606;23.588;2022-08-21T08:20:29;93923.56;;;39.76;30.42
1926;BME280;964;42.606;23.588;2022-08-21T08:22:58;93917.06;;;39.58;30.14
1926;BME280;964;42.606;23.588;2022-08-21T08:25:27;93926.69;;;39.88;29.32
1926;BME280;964;42.606;23.588;2022-08-21T08:27:54;93932.19;;;40.41;29.89
1926;BME280;964;42.606;23.588;2022-08-21T08:30:21;93923.28;;;40.50;29.78
1926;BME280;964;42.606;23.588;2022-08-21T08:32:49;93923.19;;;40.80;29.46
1926;BME280;964;42.606;23.588;2022-08-21T08:35:16;93923.59;;;40.69;29.19
1926;BME280;964;42.606;23.588;2022-08-21T08:37:43;93927.34;;;40.49;29.32
1926;BME280;964;42.606;23.588;2022-08-21T08:40:14;93913.75;;;41.16;28.73
1926;BME280;964;42.606;23.588;2022-08-21T08:42:45;93917.44;;;42.17;27.46
1926;BME280;964;42.606;23.588;2022-08-21T08:45:15;93920.41;;;39.87;30.36
1926;BME280;964;42.606;23.588;2022-08-21T08:47:46;93921.63;;;40.94;29.47
1926;BME280;964;42.606;23.588;2022-08-21T08:50:18;93929.09;;;39.91;29.95
1926;BME280;964;42.606;23.588;2022-08-21T08:52:49;93927.06;;;40.07;30.10
1926;BME280;964;42.606;23.588;2022-08-21T08:55:21;93924.84;;;39.75;30.62
1926;BME280;964;42.606;23.588;2022-08-21T08:57:51;93917.63;;;39.87;29.94
1926;BME280;964;42.606;23.588;2022-08-21T09:00:19;93923.75;;;38.89;31.36
1926;BME280;964;42.606;23.588;2022-08-21T09:02:48;93917.44;;;39.62;29.77
1926;BME280;964;42.606;23.588;2022-08-21T09:05:22;93912.03;;;40.33;29.64
1926;BME280;964;42.606;23.588;2022-08-21T09:08:01;93905.53;;;40.38;29.09
1926;BME280;964;42.606;23.588;2022-08-21T09:10:41;93909.84;;;39.93;29.51
1926;BME280;964;42.606;23.588;2022-08-21T09:13:17;93897.44;;;39.94;29.06
1926;BME280;964;42.606;23.588;2022-08-21T09:15:56;93908.16;;;39.30;30.24
1926;BME280;964;42.606;23.588;2022-08-21T09:18:36;93910.38;;;38.37;31.29
1926;BME280;964;42.606;23.588;2022-08-21T09:21:16;93899.66;;;39.43;30.25
1926;BME280;964;42.606;23.588;2022-08-21T09:23:51;93907.91;;;38.54;31.44
1926;BME280;964;42.606;23.588;2022-08-21T09:26:24;93899.97;;;39.01;31.08
1926;BME280;964;42.606;23.588;2022-08-21T09:28:54;93895.97;;;39.93;29.56
1926;BME280;964;42.606;23.588;2022-08-21T09:31:24;93905.03;;;39.79;30.92
1926;BME280;964;42.606;23.588;2022-08-21T09:33:57;93903.28;;;39.07;30.73
1926;BME280;964;42.606;23.588;2022-08-21T09:36:25;93911.97;;;39.04;31.05
1926;BME280;964;42.606;23.588;2022-08-21T09:38:57;93904.81;;;39.23;31.07
1926;BME280;964;42.606;23.588;2022-08-21T09:41:31;93895.25;;;39.70;30.44
1926;BME280;964;42.606;23.588;2022-08-21T09:43:58;93897.09;;;39.83;30.44
1926;BME280;964;42.606;23.588;2022-08-21T09:46:27;93895.34;;;39.04;30.29
1926;BME280;964;42.606;23.588;2022-08-21T09:48:55;93902.06;;;39.69;30.50
1926;BME280;964;42.606;23.588;2022-08-21T09:51:25;93900.78;;;39.55;29.53
1926;BME280;964;42.606;23.588;2022-08-21T09:53:56;93890.72;;;41.72;27.81
1926;BME280;964;42.606;23.588;2022-08-21T09:56:30;93884.72;;;41.83;27.60
1926;BME280;964;42.606;23.588;2022-08-21T09:59:19;93885.91;;;42.15;27.41
1926;BME280;964;42.606;23.588;2022-08-21T10:01:48;93889.94;;;41.79;27.33
1926;BME280;964;42.606;23.588;2022-08-21T10:04:20;93874.63;;;42.64;25.86
1926;BME280;964;42.606;23.588;2022-08-21T10:06:47;93872.19;;;41.75;27.52
1926;BME280;964;42.606;23.588;2022-08-21T10:09:16;93879.75;;;41.57;27.45
1926;BME280;964;42.606;23.588;2022-08-21T10:11:57;93879.06;;;42.33;26.61
1926;BME280;964;42.606;23.588;2022-08-21T10:14:44;93884.59;;;40.84;28.25
1926;BME280;964;42.606;23.588;2022-08-21T10:17:17;93888.50;;;40.34;28.87
1926;BME280;964;42.606;23.588;2022-08-21T10:19:55;93869.38;;;41.00;28.45
1926;BME280;964;42.606;23.588;2022-08-21T10:22:34;93877.28;;;40.01;29.44
1926;BME280;964;42.606;23.588;2022-08-21T10:25:09;93865.00;;;41.15;28.59
1926;BME280;964;42.606;23.588;2022-08-21T10:27:47;93887.09;;;40.17;30.21
1926;BME280;964;42.606;23.588;2022-08-21T10:30:30;93884.53;;;39.89;30.31
1926;BME280;964;42.606;23.588;2022-08-21T10:33:11;93878.56;;;40.15;30.48
1926;BME280;964;42.606;23.588;2022-08-21T10:35:43;93876.41;;;40.94;30.26
1926;BME280;964;42.606;23.588;2022-08-21T10:38:45;93872.09;;;40.68;30.92
1926;BME280;964;42.606;23.588;2022-08-21T10:41:20;93858.91;;;41.41;30.75
1926;BME280;964;42.606;23.588;2022-08-21T10:43:59;93850.56;;;42.25;29.90
1926;BME280;964;42.606;23.588;2022-08-21T10:46:51;93851.94;;;41.00;29.27
1926;BME280;964;42.606;23.588;2022-08-21T10:53:03;93846.75;;;40.96;30.13
1926;BME280;964;42.606;23.588;2022-08-21T10:55:33;93842.53;;;42.99;27.08
1926;BME280;964;42.606;23.588;2022-08-21T10:58:04;93852.84;;;42.19;29.52
1926;BME280;964;42.606;23.588;2022-08-21T11:00:40;93839.66;;;41.60;28.85
1926;BME280;964;42.606;23.588;2022-08-21T11:03:13;93826.22;;;43.50;27.25
1926;BME280;964;42.606;23.588;2022-08-21T11:05:45;93830.06;;;42.74;27.14
1926;BME280;964;42.606;23.588;2022-08-21T11:08:17;93831.31;;;42.80;27.00
1926;BME280;964;42.606;23.588;2022-08-21T11:10:48;93818.06;;;44.57;25.25
1926;BME280;964;42.606;23.588;2022-08-21T11:13:19;93819.50;;;43.72;25.86
1926;BME280;964;42.606;23.588;2022-08-21T11:15:56;93815.28;;;44.00;25.00
1926;BME280;964;42.606;23.588;2022-08-21T11:18:29;93800.00;;;45.79;24.04
1926;BME280;964;42.606;23.588;2022-08-21T11:21:06;93798.44;;;45.88;23.50
1926;BME280;964;42.606;23.588;2022-08-21T11:23:41;93804.13;;;46.00;23.54
1926;BME280;964;42.606;23.588;2022-08-21T11:26:13;93800.41;;;45.24;23.32
1926;BME280;964;42.606;23.588;2022-08-21T11:28:46;93800.13;;;44.60;24.28
1926;BME280;964;42.606;23.588;2022-08-21T11:31:34;93792.59;;;43.76;24.96
1926;BME280;964;42.606;23.588;2022-08-21T11:34:16;93785.72;;;44.64;24.44
1926;BME280;964;42.606;23.588;2022-08-21T11:36:52;93795.56;;;42.96;26.21
1926;BME280;964;42.606;23.588;2022-08-21T11:39:25;93788.69;;;43.99;24.77
1926;BME280;964;42.606;23.588;2022-08-21T11:41:58;93774.22;;;44.69;24.85
1926;BME280;964;42.606;23.588;2022-08-21T11:44:38;93787.88;;;42.77;26.20
1926;BME280;964;42.606;23.588;2022-08-21T11:47:14;93785.88;;;43.24;25.63
1926;BME280;964;42.606;23.588;2022-08-21T11:49:55;93795.16;;;42.12;27.38
1926;BME280;964;42.606;23.588;2022-08-21T11:52:29;93799.53;;;40.56;28.42
1926;BME280;964;42.606;23.588;2022-08-21T11:55:01;93788.06;;;42.62;26.02
1926;BME280;964;42.606;23.588;2022-08-21T11:57:34;93781.16;;;43.26;25.98
1926;BME280;964;42.606;23.588;2022-08-21T12:00:06;93787.94;;;42.08;27.62
1926;BME280;964;42.606;23.588;2022-08-21T12:02:41;93784.16;;;42.31;27.94
1926;BME280;964;42.606;23.588;2022-08-21T12:05:22;93785.97;;;42.80;27.22
1926;BME280;964;42.606;23.588;2022-08-21T12:08:00;93786.88;;;40.95;28.45
1926;BME280;964;42.606;23.588;2022-08-21T12:10:34;93790.22;;;41.01;29.44
1926;BME280;964;42.606;23.588;2022-08-21T12:13:11;93790.94;;;41.69;28.90
1926;BME280;964;42.606;23.588;2022-08-21T12:15:40;93794.63;;;41.04;28.76
1926;BME280;964;42.606;23.588;2022-08-21T12:18:23;93794.13;;;41.48;29.53
1926;BME280;964;42.606;23.588;2022-08-21T12:21:03;93800.53;;;39.66;30.57
1926;BME280;964;42.606;23.588;2022-08-21T12:23:33;93791.75;;;40.55;29.38
1926;BME280;964;42.606;23.588;2022-08-21T12:26:24;93800.19;;;39.32;30.64
1926;BME280;964;42.606;23.588;2022-08-21T12:29:13;93805.91;;;38.37;32.12
1926;BME280;964;42.606;23.588;2022-08-21T12:31:53;93806.84;;;39.51;31.15
1926;BME280;964;42.606;23.588;2022-08-21T12:34:24;93804.59;;;39.65;31.25
1926;BME280;964;42.606;23.588;2022-08-21T12:36:56;93807.56;;;39.06;31.83
1926;BME280;964;42.606;23.588;2022-08-21T12:39:26;93803.91;;;39.42;31.33
1926;BME280;964;42.606;23.588;2022-08-21T12:42:00;93798.69;;;39.76;30.41
1926;BME280;964;42.606;23.588;2022-08-21T12:44:37;93804.53;;;40.18;29.91
1926;BME280;964;42.606;23.588;2022-08-21T12:47:14;93807.84;;;40.64;29.60
1926;BME280;964;42.606;23.588;2022-08-21T12:49:51;93802.06;;;40.30;29.79
1926;BME280;964;42.606;23.588;2022-08-21T12:52:22;93803.34;;;39.43;30.94
1926;BME280;964;42.606;23.588;2022-08-21T12:54:49;93790.00;;;39.64;30.82
1926;BME280;964;42.606;23.588;2022-08-21T12:57:21;93785.41;;;39.37;31.54
1926;BME280;964;42.606;23.588;2022-08-21T12:59:53;93795.78;;;37.96;33.21
1926;BME280;964;42.606;23.588;2022-08-21T13:02:23;93785.31;;;39.97;31.01
1926;BME280;964;42.606;23.588;2022-08-21T13:04:53;93793.38;;;39.33;31.85
1926;BME280;964;42.606;23.588;2022-08-21T13:07:26;93777.50;;;40.19;31.02
1926;BME280;964;42.606;23.588;2022-08-21T13:09:55;93784.91;;;40.08;31.11
1926;BME280;964;42.606;23.588;2022-08-21T13:12:23;93787.22;;;39.57;31.94
1926;BME280;964;42.606;23.588;2022-08-21T13:14:52;93779.19;;;41.11;30.57
1926;BME280;964;42.606;23.588;2022-08-21T13:17:23;93771.66;;;40.39;30.49
1926;BME280;964;42.606;23.588;2022-08-21T13:19:59;93771.97;;;40.83;30.50
1926;BME280;964;42.606;23.588;2022-08-21T13:22:27;93780.09;;;40.09;31.18
1926;BME280;964;42.606;23.588;2022-08-21T13:24:55;93782.09;;;40.24;31.32
1926;BME280;964;42.606;23.588;2022-08-21T13:27:25;93776.41;;;40.86;30.24
1926;BME280;964;42.606;23.588;2022-08-21T13:30:09;93775.91;;;41.05;31.02
1926;BME280;964;42.606;23.588;2022-08-21T13:32:41;93778.16;;;40.34;31.14
1926;BME280;964;42.606;23.588;2022-08-21T13:35:15;93773.13;;;39.93;32.11
1926;BME280;964;42.606;23.588;2022-08-21T13:37:44;93777.63;;;39.58;32.61
1926;BME280;964;42.606;23.588;2022-08-21T13:40:15;93771.63;;;39.99;32.04
1926;BME280;964;42.606;23.588;2022-08-21T13:42:45;93766.28;;;39.86;32.34
1926;BME280;964;42.606;23.588;2022-08-21T13:45:21;93759.34;;;40.17;32.71
1926;BME280;964;42.606;23.588;2022-08-21T13:47:48;93760.28;;;39.19;33.35
1926;BME280;964;42.606;23.588;2022-08-21T13:50:18;93758.41;;;38.99;33.86
1926;BME280;964;42.606;23.588;2022-08-21T13:52:56;93733.59;;;40.25;33.05
1926;BME280;964;42.606;23.588;2022-08-21T13:55:24;93742.84;;;38.66;34.99